sensor_id;sensor_type;location;lat;lon;timestamp;temperature;humidity
24730;DHT22;12832;52.392;13.066;2022-09-24T00:01:35;26.40;37.50
24730;DHT22;12832;52.392;13.066;2022-09-24T00:04:14;26.40;37.50
24730;DHT22;12832;52.392;13.066;2022-09-24T00:06:49;26.40;37.50
24730;DHT22;12832;52.392;13.066;2022-09-24T00:09:20;26.40;37.50
24730;DHT22;12832;52.392;13.066;2022-09-24T00:11:59;26.40;37.50
24730;DHT22;12832;52.392;13.066;2022-09-24T00:14:31;26.40;37.50
24730;DHT22;12832;52.392;13.066;2022-09-24T00:17:02;26.40;37.50
24730;DHT22;12832;52.392;13.066;2022-09-24T00:19:37;26.40;37.40
24730;DHT22;12832;52.392;13.066;2022-09-24T00:22:05;26.40;37.40
24730;DHT22;12832;52.392;13.066;2022-09-24T00:24:37;26.40;37.40
24730;DHT22;12832;52.392;13.066;2022-09-24T00:27:29;26.40;37.40
24730;DHT22;12832;52.392;13.066;2022-09-24T00:30:02;26.40;37.50
24730;DHT22;12832;52.392;13.066;2022-09-24T00:32:34;26.40;37.50
24730;DHT22;12832;52.392;13.066;2022-09-24T00:35:07;26.40;37.50
24730;DHT22;12832;52.392;13.066;2022-09-24T00:37:35;26.40;37.40
24730;DHT22;12832;52.392;13.066;2022-09-24T00:40:02;26.40;37.40
24730;DHT22;12832;52.392;13.066;2022-09-24T00:42:41;26.40;37.40
24730;DHT22;12832;52.392;13.066;2022-09-24T00:45:20;26.40;37.50
24730;DHT22;12832;52.392;13.066;2022-09-24T00:47:53;26.40;37.50
24730;DHT22;12832;52.392;13.066;2022-09-24T00:50:30;26.40;37.50
24730;DHT22;12832;52.392;13.066;2022-09-24T00:53:17;26.40;37.50
24730;DHT22;12832;52.392;13.066;2022-09-24T00:55:56;26.40;37.50
24730;DHT22;12832;52.392;13.066;2022-09-24T00:58:29;26.40;37.50
24730;DHT22;12832;52.392;13.066;2022-09-24T01:01:06;26.40;37.50
24730;DHT22;12832;52.392;13.066;2022-09-24T01:03:37;26.40;37.40
24730;DHT22;12832;52.392;13.066;2022-09-24T01:06:25;26.40;37.50
24730;DHT22;12832;52.392;13.066;2022-09-24T01:09:00;26.40;37.50
24730;DHT22;12832;52.392;13.066;2022-09-24T01:17:21;26.40;37.50
24730;DHT22;12832;52.392;13.066;2022-09-24T01:33:10;26.40;37.50
24730;DHT22;12832;52.392;13.066;2022-09-24T01:35:50;26.40;37.50
24730;DHT22;12832;52.392;13.066;2022-09-24T01:38:25;26.40;37.50
24730;DHT22;12832;52.392;13.066;2022-09-24T01:41:03;26.40;37.50
24730;DHT22;12832;52.392;13.066;2022-09-24T01:43:39;26.40;37.60
24730;DHT22;12832;52.392;13.066;2022-09-24T01:46:19;26.40;37.50
24730;DHT22;12832;52.392;13.066;2022-09-24T01:48:58;26.40;37.50
24730;DHT22;12832;52.392;13.066;2022-09-24T01:51:43;26.40;37.50
24730;DHT22;12832;52.392;13.066;2022-09-24T01:54:36;26.40;38.20
24730;DHT22;12832;52.392;13.066;2022-09-24T01:57:23;26.40;37.50
24730;DHT22;12832;52.392;13.066;2022-09-24T02:00:17;26.40;37.50
24730;DHT22;12832;52.392;13.066;2022-09-24T02:03:07;26.50;37.60
24730;DHT22;12832;52.392;13.066;2022-09-24T02:06:13;26.40;37.50
24730;DHT22;12832;52.392;13.066;2022-09-24T02:09:02;26.40;37.60
24730;DHT22;12832;52.392;13.066;2022-09-24T02:11:39;26.40;37.50
24730;DHT22;12832;52.392;13.066;2022-09-24T02:14:13;26.40;37.50
24730;DHT22;12832;52.392;13.066;2022-09-24T02:16:47;26.40;37.50
24730;DHT22;12832;52.392;13.066;2022-09-24T02:19:18;26.40;37.50
24730;DHT22;12832;52.392;13.066;2022-09-24T02:21:52;26.40;37.50
24730;DHT22;12832;52.392;13.066;2022-09-24T02:24:37;26.40;37.50
24730;DHT22;12832;52.392;13.066;2022-09-24T02:27:20;26.40;37.50
24730;DHT22;12832;52.392;13.066;2022-09-24T02:29:50;26.40;37.50
24730;DHT22;12832;52.392;13.066;2022-09-24T02:32:18;26.40;37.50
24730;DHT22;12832;52.392;13.066;2022-09-24T02:34:51;26.50;37.60
24730;DHT22;12832;52.392;13.066;2022-09-24T02:37:49;26.40;37.50
24730;DHT22;12832;52.392;13.066;2022-09-24T02:40:26;26.50;37.60
24730;DHT22;12832;52.392;13.066;2022-09-24T02:43:05;26.50;37.50
24730;DHT22;12832;52.392;13.066;2022-09-24T02:45:43;26.40;37.50
24730;DHT22;12832;52.392;13.066;2022-09-24T02:48:11;26.50;37.50
24730;DHT22;12832;52.392;13.066;2022-09-24T02:50:44;26.50;37.50
24730;DHT22;12832;52.392;13.066;2022-09-24T02:53:12;26.50;37.50
24730;DHT22;12832;52.392;13.066;2022-09-24T02:55:42;26.50;37.50
24730;DHT22;12832;52.392;13.066;2022-09-24T02:58:33;26.50;37.60
24730;DHT22;12832;52.392;13.066;2022-09-24T03:01:12;26.40;37.50
24730;DHT22;12832;52.392;13.066;2022-09-24T03:03:56;26.50;37.60
24730;DHT22;12832;52.392;13.066;2022-09-24T03:06:31;26.50;37.50
24730;DHT22;12832;52.392;13.066;2022-09-24T03:09:22;26.50;37.50
24730;DHT22;12832;52.392;13.066;2022-09-24T03:11:51;26.50;37.60
24730;DHT22;12832;52.392;13.066;2022-09-24T03:14:19;26.50;37.60
24730;DHT22;12832;52.392;13.066;2022-09-24T03:16:58;26.50;37.60
24730;DHT22;12832;52.392;13.066;2022-09-24T03:19:28;26.50;37.60
24730;DHT22;12832;52.392;13.066;2022-09-24T03:22:02;26.50;37.60
24730;DHT22;12832;52.392;13.066;2022-09-24T03:24:55;26.40;37.50
24730;DHT22;12832;52.392;13.066;2022-09-24T03:27:24;26.50;37.60
24730;DHT22;12832;52.392;13.066;2022-09-24T03:30:14;26.50;37.50
24730;DHT22;12832;52.392;13.066;2022-09-24T03:32:59;26.50;37.50
24730;DHT22;12832;52.392;13.066;2022-09-24T03:35:28;26.50;37.40
24730;DHT22;12832;52.392;13.066;2022-09-24T03:38:08;26.50;37.40
24730;DHT22;12832;52.392;13.066;2022-09-24T03:40:43;26.50;37.40
24730;DHT22;12832;52.392;13.066;2022-09-24T03:43:18;26.50;37.40
24730;DHT22;12832;52.392;13.066;2022-09-24T03:45:54;26.50;37.40
24730;DHT22;12832;52.392;13.066;2022-09-24T03:48:27;26.60;37.50
24730;DHT22;12832;52.392;13.066;2022-09-24T03:51:19;26.50;37.50
24730;DHT22;12832;52.392;13.066;2022-09-24T03:53:58;26.50;37.40
24730;DHT22;12832;52.392;13.066;2022-09-24T03:56:30;26.50;37.40
24730;DHT22;12832;52.392;13.066;2022-09-24T03:59:10;26.50;37.50
24730;DHT22;12832;52.392;13.066;2022-09-24T04:01:41;26.50;37.50
24730;DHT22;12832;52.392;13.066;2022-09-24T04:04:14;26.50;37.50
24730;DHT22;12832;52.392;13.066;2022-09-24T04:06:42;26.50;37.50
24730;DHT22;12832;52.392;13.066;2022-09-24T04:09:13;26.50;37.60
24730;DHT22;12832;52.392;13.066;2022-09-24T04:11:39;26.50;37.50
24730;DHT22;12832;52.392;13.066;2022-09-24T04:14:11;26.50;37.50
24730;DHT22;12832;52.392;13.066;2022-09-24T04:16:48;26.50;37.50
24730;DHT22;12832;52.392;13.066;2022-09-24T04:19:18;26.50;37.60
24730;DHT22;12832;52.392;13.066;2022-09-24T04:21:49;26.50;37.60
24730;DHT22;12832;52.392;13.066;2022-09-24T04:24:24;26.50;37.50
24730;DHT22;12832;52.392;13.066;2022-09-24T04:26:55;26.50;37.60
24730;DHT22;12832;52.392;13.066;2022-09-24T04:29:25;26.50;37.60
24730;DHT22;12832;52.392;13.066;2022-09-24T04:31:52;26.50;37.60
24730;DHT22;12832;52.392;13.066;2022-09-24T04:34:29;26.50;37.60
24730;DHT22;12832;52.392;13.066;2022-09-24T04:37:02;26.50;37.60
24730;DHT22;12832;52.392;13.066;2022-09-24T04:39:41;26.50;37.60
24730;DHT22;12832;52.392;13.066;2022-09-24T04:42:21;26.50;37.60
24730;DHT22;12832;52.392;13.066;2022-09-24T04:44:55;26.50;37.60
24730;DHT22;12832;52.392;13.066;2022-09-24T04:47:28;26.50;37.60
24730;DHT22;12832;52.392;13.066;2022-09-24T04:50:19;26.50;37.60
24730;DHT22;12832;52.392;13.066;2022-09-24T04:53:01;26.50;37.60
24730;DHT22;12832;52.392;13.066;2022-09-24T04:55:34;26.50;37.60
24730;DHT22;12832;52.392;13.066;2022-09-24T04:58:06;26.50;37.60
24730;DHT22;12832;52.392;13.066;2022-09-24T05:00:39;26.50;37.70
24730;DHT22;12832;52.392;13.066;2022-09-24T05:03:25;26.50;37.60
24730;DHT22;12832;52.392;13.066;2022-09-24T05:06:04;26.50;37.60
24730;DHT22;12832;52.392;13.066;2022-09-24T05:08:38;26.50;37.60
24730;DHT22;12832;52.392;13.066;2022-09-24T05:11:15;26.50;37.60
24730;DHT22;12832;52.392;13.066;2022-09-24T05:13:58;26.50;37.60
24730;DHT22;12832;52.392;13.066;2022-09-24T05:16:31;26.50;37.60
24730;DHT22;12832;52.392;13.066;2022-09-24T05:19:12;26.50;37.60
24730;DHT22;12832;52.392;13.066;2022-09-24T05:21:47;26.50;37.80
24730;DHT22;12832;52.392;13.066;2022-09-24T05:24:15;26.50;37.60
24730;DHT22;12832;52.392;13.066;2022-09-24T05:27:00;26.50;37.70
24730;DHT22;12832;52.392;13.066;2022-09-24T05:29:45;26.50;37.60
24730;DHT22;12832;52.392;13.066;2022-09-24T05:32:13;26.50;37.60
24730;DHT22;12832;52.392;13.066;2022-09-24T05:34:47;26.50;37.60
24730;DHT22;12832;52.392;13.066;2022-09-24T05:37:20;26.50;37.60
24730;DHT22;12832;52.392;13.066;2022-09-24T05:39:58;26.50;37.60
24730;DHT22;12832;52.392;13.066;2022-09-24T05:43:03;26.50;37.70
24730;DHT22;12832;52.392;13.066;2022-09-24T05:45:32;26.50;37.70
24730;DHT22;12832;52.392;13.066;2022-09-24T05:48:07;26.50;37.60
24730;DHT22;12832;52.392;13.066;2022-09-24T05:50:39;26.50;37.60
24730;DHT22;12832;52.392;13.066;2022-09-24T05:53:10;26.50;37.60
24730;DHT22;12832;52.392;13.066;2022-09-24T05:55:48;26.50;37.60
24730;DHT22;12832;52.392;13.066;2022-09-24T05:58:21;26.50;37.70
24730;DHT22;12832;52.392;13.066;2022-09-24T06:01:04;26.50;37.70
24730;DHT22;12832;52.392;13.066;2022-09-24T06:03:35;26.50;37.60
24730;DHT22;12832;52.392;13.066;2022-09-24T06:06:02;26.50;37.60
24730;DHT22;12832;52.392;13.066;2022-09-24T06:08:34;26.50;37.60
24730;DHT22;12832;52.392;13.066;2022-09-24T06:11:06;26.50;37.70
24730;DHT22;12832;52.392;13.066;2022-09-24T06:13:45;26.50;37.70
24730;DHT22;12832;52.392;13.066;2022-09-24T06:16:18;26.50;37.70
24730;DHT22;12832;52.392;13.066;2022-09-24T06:18:48;26.50;37.70
24730;DHT22;12832;52.392;13.066;2022-09-24T06:21:20;26.50;37.70
24730;DHT22;12832;52.392;13.066;2022-09-24T06:23:59;26.50;37.70
24730;DHT22;12832;52.392;13.066;2022-09-24T06:26:32;26.50;37.70
24730;DHT22;12832;52.392;13.066;2022-09-24T06:29:00;26.50;37.70
24730;DHT22;12832;52.392;13.066;2022-09-24T06:31:32;26.50;37.70
24730;DHT22;12832;52.392;13.066;2022-09-24T06:34:05;26.50;37.70
24730;DHT22;12832;52.392;13.066;2022-09-24T06:36:44;26.50;37.70
24730;DHT22;12832;52.392;13.066;2022-09-24T06:39:22;26.50;37.70
24730;DHT22;12832;52.392;13.066;2022-09-24T06:41:49;26.50;37.70
24730;DHT22;12832;52.392;13.066;2022-09-24T06:44:19;26.60;37.80
24730;DHT22;12832;52.392;13.066;2022-09-24T06:46:51;26.50;37.70
24730;DHT22;12832;52.392;13.066;2022-09-24T06:49:22;26.50;37.70
24730;DHT22;12832;52.392;13.066;2022-09-24T06:52:02;26.50;37.70
24730;DHT22;12832;52.392;13.066;2022-09-24T06:54:39;26.50;37.70
24730;DHT22;12832;52.392;13.066;2022-09-24T06:57:12;26.50;37.70
24730;DHT22;12832;52.392;13.066;2022-09-24T06:59:43;26.60;37.70
24730;DHT22;12832;52.392;13.066;2022-09-24T07:02:24;26.50;37.70
24730;DHT22;12832;52.392;13.066;2022-09-24T07:05:01;26.60;37.70
24730;DHT22;12832;52.392;13.066;2022-09-24T07:07:35;26.60;37.70
24730;DHT22;12832;52.392;13.066;2022-09-24T07:10:23;26.50;37.70
24730;DHT22;12832;52.392;13.066;2022-09-24T07:12:59;26.50;37.70
24730;DHT22;12832;52.392;13.066;2022-09-24T07:15:38;26.50;37.70
24730;DHT22;12832;52.392;13.066;2022-09-24T07:18:20;26.50;37.70
24730;DHT22;12832;52.392;13.066;2022-09-24T07:21:01;26.50;37.70
24730;DHT22;12832;52.392;13.066;2022-09-24T07:23:35;26.50;37.70
24730;DHT22;12832;52.392;13.066;2022-09-24T07:26:11;26.60;37.80
24730;DHT22;12832;52.392;13.066;2022-09-24T07:28:43;26.50;37.70
24730;DHT22;12832;52.392;13.066;2022-09-24T07:31:15;26.50;37.70
24730;DHT22;12832;52.392;13.066;2022-09-24T07:33:48;26.50;37.70
24730;DHT22;12832;52.392;13.066;2022-09-24T07:36:14;26.50;37.70
24730;DHT22;12832;52.392;13.066;2022-09-24T07:38:42;26.50;37.70
24730;DHT22;12832;52.392;13.066;2022-09-24T07:41:16;26.50;37.70
24730;DHT22;12832;52.392;13.066;2022-09-24T07:43:55;26.50;37.70
24730;DHT22;12832;52.392;13.066;2022-09-24T07:46:30;26.50;37.70
24730;DHT22;12832;52.392;13.066;2022-09-24T07:49:01;26.60;37.80
24730;DHT22;12832;52.392;13.066;2022-09-24T07:51:37;26.60;37.80
24730;DHT22;12832;52.392;13.066;2022-09-24T07:54:11;26.50;37.70
24730;DHT22;12832;52.392;13.066;2022-09-24T07:56:43;26.60;37.80
24730;DHT22;12832;52.392;13.066;2022-09-24T07:59:09;26.50;37.80
24730;DHT22;12832;52.392;13.066;2022-09-24T08:01:39;26.60;37.80
24730;DHT22;12832;52.392;13.066;2022-09-24T08:04:07;26.50;37.70
24730;DHT22;12832;52.392;13.066;2022-09-24T08:06:45;26.60;37.80
24730;DHT22;12832;52.392;13.066;2022-09-24T08:09:18;26.50;37.70
24730;DHT22;12832;52.392;13.066;2022-09-24T08:11:52;26.60;37.80
24730;DHT22;12832;52.392;13.066;2022-09-24T08:14:26;26.60;37.80
24730;DHT22;12832;52.392;13.066;2022-09-24T08:16:57;26.60;37.80
24730;DHT22;12832;52.392;13.066;2022-09-24T08:19:24;26.50;37.70
24730;DHT22;12832;52.392;13.066;2022-09-24T08:22:07;26.50;37.80
24730;DHT22;12832;52.392;13.066;2022-09-24T08:24:42;26.60;37.80
24730;DHT22;12832;52.392;13.066;2022-09-24T08:27:14;26.50;37.70
24730;DHT22;12832;52.392;13.066;2022-09-24T08:29:56;26.50;37.80
24730;DHT22;12832;52.392;13.066;2022-09-24T08:32:29;26.60;37.80
24730;DHT22;12832;52.392;13.066;2022-09-24T08:34:56;26.50;38.50
24730;DHT22;12832;52.392;13.066;2022-09-24T08:37:28;26.60;37.80
24730;DHT22;12832;52.392;13.066;2022-09-24T08:40:35;26.50;37.70
24730;DHT22;12832;52.392;13.066;2022-09-24T08:43:25;26.50;37.80
24730;DHT22;12832;52.392;13.066;2022-09-24T08:46:00;26.60;37.90
24730;DHT22;12832;52.392;13.066;2022-09-24T08:48:56;26.60;37.80
24730;DHT22;12832;52.392;13.066;2022-09-24T08:51:32;26.60;37.80
24730;DHT22;12832;52.392;13.066;2022-09-24T08:54:12;26.60;37.90
24730;DHT22;12832;52.392;13.066;2022-09-24T08:56:46;26.60;37.80
24730;DHT22;12832;52.392;13.066;2022-09-24T08:59:30;26.60;37.80
24730;DHT22;12832;52.392;13.066;2022-09-24T09:08:02;26.60;37.90
24730;DHT22;12832;52.392;13.066;2022-09-24T09:11:03;26.60;37.90
24730;DHT22;12832;52.392;13.066;2022-09-24T09:13:54;26.50;37.80
24730;DHT22;12832;52.392;13.066;2022-09-24T09:16:32;26.50;37.90
24730;DHT22;12832;52.392;13.066;2022-09-24T09:19:04;26.60;37.90
24730;DHT22;12832;52.392;13.066;2022-09-24T09:21:40;26.60;38.50
24730;DHT22;12832;52.392;13.066;2022-09-24T09:24:30;26.60;37.90
24730;DHT22;12832;52.392;13.066;2022-09-24T09:27:11;26.60;37.90
24730;DHT22;12832;52.392;13.066;2022-09-24T09:29:44;26.60;37.80
24730;DHT22;12832;52.392;13.066;2022-09-24T09:35:13;26.60;37.90
24730;DHT22;12832;52.392;13.066;2022-09-24T09:41:02;26.60;37.90
24730;DHT22;12832;52.392;13.066;2022-09-24T09:43:45;26.60;37.90
24730;DHT22;12832;52.392;13.066;2022-09-24T09:46:23;26.60;37.90
24730;DHT22;12832;52.392;13.066;2022-09-24T09:49:03;26.60;38.70
24730;DHT22;12832;52.392;13.066;2022-09-24T09:51:46;26.50;37.90
24730;DHT22;12832;52.392;13.066;2022-09-24T09:54:21;26.60;37.90
24730;DHT22;12832;52.392;13.066;2022-09-24T09:56:54;26.60;37.90
24730;DHT22;12832;52.392;13.066;2022-09-24T09:59:40;26.60;37.90
24730;DHT22;12832;52.392;13.066;2022-09-24T10:02:27;26.60;37.90
24730;DHT22;12832;52.392;13.066;2022-09-24T10:04:58;26.60;37.90
24730;DHT22;12832;52.392;13.066;2022-09-24T10:07:47;26.60;37.90
24730;DHT22;12832;52.392;13.066;2022-09-24T10:10:22;26.60;37.90
24730;DHT22;12832;52.392;13.066;2022-09-24T10:13:13;26.60;37.90
24730;DHT22;12832;52.392;13.066;2022-09-24T10:15:54;26.60;37.90
24730;DHT22;12832;52.392;13.066;2022-09-24T10:18:49;26.60;37.90
24730;DHT22;12832;52.392;13.066;2022-09-24T10:21:32;26.60;37.90
24730;DHT22;12832;52.392;13.066;2022-09-24T10:24:10;26.60;37.80
24730;DHT22;12832;52.392;13.066;2022-09-24T10:26:45;26.50;37.70
24730;DHT22;12832;52.392;13.066;2022-09-24T10:29:26;26.60;37.90
24730;DHT22;12832;52.392;13.066;2022-09-24T10:32:20;26.60;37.80
24730;DHT22;12832;52.392;13.066;2022-09-24T10:35:19;26.60;37.90
24730;DHT22;12832;52.392;13.066;2022-09-24T10:37:53;26.60;37.90
24730;DHT22;12832;52.392;13.066;2022-09-24T10:40:23;26.60;37.90
24730;DHT22;12832;52.392;13.066;2022-09-24T10:43:21;26.60;37.90
24730;DHT22;12832;52.392;13.066;2022-09-24T10:49:03;26.60;37.90
24730;DHT22;12832;52.392;13.066;2022-09-24T10:51:54;26.60;37.90
24730;DHT22;12832;52.392;13.066;2022-09-24T10:57:41;26.60;37.90
24730;DHT22;12832;52.392;13.066;2022-09-24T11:00:23;26.60;37.90
24730;DHT22;12832;52.392;13.066;2022-09-24T11:05:40;26.60;37.90
24730;DHT22;12832;52.392;13.066;2022-09-24T11:08:26;26.60;37.90
24730;DHT22;12832;52.392;13.066;2022-09-24T11:20:32;26.60;38.00
24730;DHT22;12832;52.392;13.066;2022-09-24T11:23:30;26.60;37.90
24730;DHT22;12832;52.392;13.066;2022-09-24T11:31:56;26.60;37.90
24730;DHT22;12832;52.392;13.066;2022-09-24T11:38:07;26.60;37.90
24730;DHT22;12832;52.392;13.066;2022-09-24T11:43:39;26.60;37.90
24730;DHT22;12832;52.392;13.066;2022-09-24T11:55:29;26.60;37.90
24730;DHT22;12832;52.392;13.066;2022-09-24T11:58:24;26.60;37.90
24730;DHT22;12832;52.392;13.066;2022-09-24T12:04:02;26.60;37.90
24730;DHT22;12832;52.392;13.066;2022-09-24T12:06:49;26.60;37.90
24730;DHT22;12832;52.392;13.066;2022-09-24T12:09:42;26.60;37.90
24730;DHT22;12832;52.392;13.066;2022-09-24T12:18:02;26.60;38.00
24730;DHT22;12832;52.392;13.066;2022-09-24T12:20:58;26.60;37.90
24730;DHT22;12832;52.392;13.066;2022-09-24T12:23:33;26.60;37.90
24730;DHT22;12832;52.392;13.066;2022-09-24T12:26:15;26.60;38.00
24730;DHT22;12832;52.392;13.066;2022-09-24T12:32:14;26.60;38.00
24730;DHT22;12832;52.392;13.066;2022-09-24T12:38:40;26.60;38.00
24730;DHT22;12832;52.392;13.066;2022-09-24T12:46:51;26.60;37.90
24730;DHT22;12832;52.392;13.066;2022-09-24T12:49:34;26.60;38.00
24730;DHT22;12832;52.392;13.066;2022-09-24T12:52:27;26.60;37.90
24730;DHT22;12832;52.392;13.066;2022-09-24T12:55:03;26.60;37.90
24730;DHT22;12832;52.392;13.066;2022-09-24T12:57:42;26.60;38.00
24730;DHT22;12832;52.392;13.066;2022-09-24T13:00:36;26.60;38.00
24730;DHT22;12832;52.392;13.066;2022-09-24T13:03:34;26.60;38.00
24730;DHT22;12832;52.392;13.066;2022-09-24T13:06:32;26.60;38.00
24730;DHT22;12832;52.392;13.066;2022-09-24T13:09:28;26.60;38.00
24730;DHT22;12832;52.392;13.066;2022-09-24T13:12:30;26.60;38.00
24730;DHT22;12832;52.392;13.066;2022-09-24T13:20:57;26.60;38.00
24730;DHT22;12832;52.392;13.066;2022-09-24T13:26:07;26.60;38.10
24730;DHT22;12832;52.392;13.066;2022-09-24T13:33:59;26.60;38.00
24730;DHT22;12832;52.392;13.066;2022-09-24T13:37:00;26.60;38.00
24730;DHT22;12832;52.392;13.066;2022-09-24T13:39:59;26.60;38.00
24730;DHT22;12832;52.392;13.066;2022-09-24T13:42:54;26.60;38.10
24730;DHT22;12832;52.392;13.066;2022-09-24T13:45:25;26.60;38.00
24730;DHT22;12832;52.392;13.066;2022-09-24T13:48:04;26.70;38.10
24730;DHT22;12832;52.392;13.066;2022-09-24T13:50:50;26.60;38.00
24730;DHT22;12832;52.392;13.066;2022-09-24T13:53:51;26.60;38.10
24730;DHT22;12832;52.392;13.066;2022-09-24T13:56:27;26.60;38.00
24730;DHT22;12832;52.392;13.066;2022-09-24T13:59:05;26.60;38.00
24730;DHT22;12832;52.392;13.066;2022-09-24T14:01:42;26.60;38.00
24730;DHT22;12832;52.392;13.066;2022-09-24T14:04:19;26.60;38.00
24730;DHT22;12832;52.392;13.066;2022-09-24T14:06:54;26.60;38.10
24730;DHT22;12832;52.392;13.066;2022-09-24T14:09:34;26.60;38.00
24730;DHT22;12832;52.392;13.066;2022-09-24T14:12:16;26.70;38.10
24730;DHT22;12832;52.392;13.066;2022-09-24T14:14:57;26.60;38.00
24730;DHT22;12832;52.392;13.066;2022-09-24T14:17:26;26.60;38.00
24730;DHT22;12832;52.392;13.066;2022-09-24T14:19:57;26.60;38.00
24730;DHT22;12832;52.392;13.066;2022-09-24T14:22:35;26.60;38.00
24730;DHT22;12832;52.392;13.066;2022-09-24T14:25:18;26.60;38.00
24730;DHT22;12832;52.392;13.066;2022-09-24T14:27:51;26.60;38.10
24730;DHT22;12832;52.392;13.066;2022-09-24T14:30:26;26.60;38.00
24730;DHT22;12832;52.392;13.066;2022-09-24T14:35:34;26.70;38.10
24730;DHT22;12832;52.392;13.066;2022-09-24T14:41:05;26.70;38.10
24730;DHT22;12832;52.392;13.066;2022-09-24T14:43:54;26.70;38.10
24730;DHT22;12832;52.392;13.066;2022-09-24T14:46:34;26.60;38.00
24730;DHT22;12832;52.392;13.066;2022-09-24T14:49:25;26.60;38.10
24730;DHT22;12832;52.392;13.066;2022-09-24T14:51:57;26.70;38.10
24730;DHT22;12832;52.392;13.066;2022-09-24T14:54:37;26.60;38.10
24730;DHT22;12832;52.392;13.066;2022-09-24T14:57:23;26.60;38.10
24730;DHT22;12832;52.392;13.066;2022-09-24T15:00:24;26.60;38.10
24730;DHT22;12832;52.392;13.066;2022-09-24T15:02:57;26.60;38.10
24730;DHT22;12832;52.392;13.066;2022-09-24T15:05:28;26.60;38.10
24730;DHT22;12832;52.392;13.066;2022-09-24T15:11:02;26.60;38.10
24730;DHT22;12832;52.392;13.066;2022-09-24T15:13:32;26.60;38.10
24730;DHT22;12832;52.392;13.066;2022-09-24T15:16:18;26.60;38.10
24730;DHT22;12832;52.392;13.066;2022-09-24T15:21:36;26.60;38.10
24730;DHT22;12832;52.392;13.066;2022-09-24T15:24:18;26.60;38.10
24730;DHT22;12832;52.392;13.066;2022-09-24T15:27:37;26.60;38.10
24730;DHT22;12832;52.392;13.066;2022-09-24T15:30:29;26.70;38.20
24730;DHT22;12832;52.392;13.066;2022-09-24T15:32:57;26.60;38.10
24730;DHT22;12832;52.392;13.066;2022-09-24T15:35:25;26.60;38.10
24730;DHT22;12832;52.392;13.066;2022-09-24T15:37:52;26.60;38.10
24730;DHT22;12832;52.392;13.066;2022-09-24T15:40:27;26.70;38.10
24730;DHT22;12832;52.392;13.066;2022-09-24T15:43:19;26.60;38.10
24730;DHT22;12832;52.392;13.066;2022-09-24T15:46:02;26.60;38.10
24730;DHT22;12832;52.392;13.066;2022-09-24T15:48:37;26.60;38.10
24730;DHT22;12832;52.392;13.066;2022-09-24T15:51:09;26.60;38.20
24730;DHT22;12832;52.392;13.066;2022-09-24T15:53:43;26.60;38.10
24730;DHT22;12832;52.392;13.066;2022-09-24T15:56:21;26.60;38.10
24730;DHT22;12832;52.392;13.066;2022-09-24T15:58:54;26.70;38.10
24730;DHT22;12832;52.392;13.066;2022-09-24T16:01:33;26.70;38.10
24730;DHT22;12832;52.392;13.066;2022-09-24T16:04:10;26.70;38.20
24730;DHT22;12832;52.392;13.066;2022-09-24T16:06:37;26.70;38.10
24730;DHT22;12832;52.392;13.066;2022-09-24T16:09:15;26.70;38.10
24730;DHT22;12832;52.392;13.066;2022-09-24T16:12:01;26.70;38.10
24730;DHT22;12832;52.392;13.066;2022-09-24T16:14:35;26.60;38.20
24730;DHT22;12832;52.392;13.066;2022-09-24T16:17:07;26.60;38.20
24730;DHT22;12832;52.392;13.066;2022-09-24T16:19:33;26.70;38.20
24730;DHT22;12832;52.392;13.066;2022-09-24T16:22:02;26.70;38.20
24730;DHT22;12832;52.392;13.066;2022-09-24T16:24:36;26.70;38.20
24730;DHT22;12832;52.392;13.066;2022-09-24T16:27:10;26.70;38.20
24730;DHT22;12832;52.392;13.066;2022-09-24T16:29:46;26.70;38.20
24730;DHT22;12832;52.392;13.066;2022-09-24T16:32:21;26.70;38.10
24730;DHT22;12832;52.392;13.066;2022-09-24T16:34:51;26.70;38.20
24730;DHT22;12832;52.392;13.066;2022-09-24T16:37:30;26.70;38.20
24730;DHT22;12832;52.392;13.066;2022-09-24T16:39:58;26.70;38.20
24730;DHT22;12832;52.392;13.066;2022-09-24T16:42:28;26.70;38.20
24730;DHT22;12832;52.392;13.066;2022-09-24T16:45:01;26.70;38.20
24730;DHT22;12832;52.392;13.066;2022-09-24T16:47:45;26.70;38.10
24730;DHT22;12832;52.392;13.066;2022-09-24T16:50:11;26.70;38.20
24730;DHT22;12832;52.392;13.066;2022-09-24T16:52:44;26.70;38.10
24730;DHT22;12832;52.392;13.066;2022-09-24T16:55:20;26.70;38.20
24730;DHT22;12832;52.392;13.066;2022-09-24T16:57:54;26.70;38.20
24730;DHT22;12832;52.392;13.066;2022-09-24T17:00:22;26.70;38.20
24730;DHT22;12832;52.392;13.066;2022-09-24T17:02:54;26.70;38.20
24730;DHT22;12832;52.392;13.066;2022-09-24T17:05:23;26.70;38.40
24730;DHT22;12832;52.392;13.066;2022-09-24T17:07:58;26.70;38.20
24730;DHT22;12832;52.392;13.066;2022-09-24T17:10:27;26.70;38.20
24730;DHT22;12832;52.392;13.066;2022-09-24T17:13:01;26.60;37.80
24730;DHT22;12832;52.392;13.066;2022-09-24T17:15:32;26.60;38.30
24730;DHT22;12832;52.392;13.066;2022-09-24T17:18:04;26.70;38.30
24730;DHT22;12832;52.392;13.066;2022-09-24T17:20:43;26.70;38.30
24730;DHT22;12832;52.392;13.066;2022-09-24T17:23:22;26.70;38.30
24730;DHT22;12832;52.392;13.066;2022-09-24T17:26:20;26.70;38.30
24730;DHT22;12832;52.392;13.066;2022-09-24T17:28:58;26.70;38.30
24730;DHT22;12832;52.392;13.066;2022-09-24T17:31:27;26.70;38.30
24730;DHT22;12832;52.392;13.066;2022-09-24T17:34:06;26.70;38.30
24730;DHT22;12832;52.392;13.066;2022-09-24T17:36:43;26.70;38.30
24730;DHT22;12832;52.392;13.066;2022-09-24T17:39:11;26.70;38.30
24730;DHT22;12832;52.392;13.066;2022-09-24T17:41:44;26.70;38.40
24730;DHT22;12832;52.392;13.066;2022-09-24T17:44:20;26.70;38.40
24730;DHT22;12832;52.392;13.066;2022-09-24T17:47:04;26.70;38.30
24730;DHT22;12832;52.392;13.066;2022-09-24T17:49:35;26.70;38.40
24730;DHT22;12832;52.392;13.066;2022-09-24T17:52:10;26.70;38.40
24730;DHT22;12832;52.392;13.066;2022-09-24T17:54:49;26.70;38.30
24730;DHT22;12832;52.392;13.066;2022-09-24T17:57:38;26.70;38.30
24730;DHT22;12832;52.392;13.066;2022-09-24T18:00:15;26.70;38.30
24730;DHT22;12832;52.392;13.066;2022-09-24T18:02:54;26.70;38.30
24730;DHT22;12832;52.392;13.066;2022-09-24T18:05:33;26.70;38.30
24730;DHT22;12832;52.392;13.066;2022-09-24T18:08:05;26.70;38.30
24730;DHT22;12832;52.392;13.066;2022-09-24T18:11:07;26.70;38.40
24730;DHT22;12832;52.392;13.066;2022-09-24T18:13:38;26.70;38.30
24730;DHT22;12832;52.392;13.066;2022-09-24T18:16:15;26.70;38.30
24730;DHT22;12832;52.392;13.066;2022-09-24T18:18:51;26.70;38.40